首页
METAR-TAF:

METAR-TAF

机场 :

尼诺伊·阿基诺国际机场

马尼拉, 菲律宾

纬度: 14-31N, 经度: 121-00E, 海拔: 14米

当前天气观测

该预报发布于1小时和2分钟前的17:00 UTC
风速3节,风向东转东南
温度 27°C
湿度 100%
气压 1011 hPa
能见度10公里或以上
少量云层高于2300英尺
多云层高于30000英尺

METAR: RPLL 231700Z 11003KT 9999 FEW023 BKN300 27/27 Q1011 NOSIG RMK A2985

时间: 02:02 (18:02 UTC)

预报

该预报发布于1小时和2分钟前的17:00 UTC
预报有效从23日的 18点(UTC)到 24日的 24点(UTC)
风速7节,风向东南
能见度10公里或以上
少量云层高于2300英尺
多云层高于10000英尺
短暂存在
从 23日的 18点(UTC)到 23日的 24点(UTC)
风速4节,风向东转东南
能見度: 9000
散云层高于2200英尺
阴天层高于9000英尺
小阵雨
短暂存在
从 24日的 00点(UTC)到 24日的 06点(UTC)
风速12节,风向东转东南
少量云层高于2300英尺
多云层高于10000英尺

TAF: RPLL 231700Z 2318/2424 13007KT 9999 FEW023 BKN100 TX33/2406Z TN26/2321Z TEMPO 2318/2324 12004KT 9000 -SHRA SCT022 OVC090 TEMPO 2400/2406 11012KT FEW023 BKN100

超过4000个机场的气象观测和天气预报(METAR&TAF报告)。

可查询的气象台以黄色和红色小点在地图上表示。

将鼠标移到小点上方,可查看气象台名称。

然后点击查看天气观测和预报。

如需切换地图:点击带黑十字的绿色按钮放大地图;点击带横线的绿色按钮缩小地图;或者点击绿色箭头查看邻近地区的地图。


METAR-TAF: